Terminal Aerodrome Forecast
Issued by NWS

Home | Current Version | Previous Version | Text Only | Print | Product List | Glossary On
Versions: 1 2 3 4 5 6 7 8 9 10 11 12 13 14 15 16 17 18 19 20 21 22 23 24 25 26 27 28 29
000
FTUS46 KLOX 040328 AAC
TAFLAX
TAF AMD
KLAX 040328Z 0403/0506 25014KT P6SM BKN008 BKN025
     FM040400 25007KT 5SM HZ OVC010
     FM040900 VRB03KT 5SM BR OVC012
     FM041600 24006KT P6SM OVC015
     FM042000 26012KT P6SM SCT015
     FM050400 26010KT P6SM BKN012=

USA.gov is the U.S. government's official web portal to all federal, state and local government web resources and services.